createdAt,value
2019-03-17T00:01:57.695Z,11.50
2019-03-17T00:04:31.316Z,11.40
2019-03-17T00:06:57.351Z,11.40
2019-03-17T00:09:26.085Z,11.40
2019-03-17T00:11:54.872Z,11.30
2019-03-17T00:14:23.746Z,11.20
2019-03-17T00:16:52.495Z,11.10
2019-03-17T00:19:21.319Z,11.00
2019-03-17T00:21:50.059Z,10.90
2019-03-17T00:24:18.797Z,10.90
2019-03-17T00:26:47.613Z,10.90
2019-03-17T00:29:16.327Z,10.80
2019-03-17T00:31:45.062Z,10.70
2019-03-17T00:34:13.794Z,10.60
2019-03-17T00:36:42.659Z,10.60
2019-03-17T00:39:11.384Z,10.50
2019-03-17T00:41:40.119Z,10.50
2019-03-17T00:44:08.844Z,10.40
2019-03-17T00:46:37.581Z,10.30
2019-03-17T00:49:06.378Z,10.30
2019-03-17T00:51:35.172Z,10.30
2019-03-17T00:54:03.887Z,10.20
2019-03-17T00:56:32.625Z,10.20
2019-03-17T00:59:01.334Z,10.30
2019-03-17T01:01:30.075Z,10.20
2019-03-17T01:03:58.830Z,10.10
2019-03-17T01:06:27.634Z,10.20
2019-03-17T01:08:56.342Z,9.90
2019-03-17T01:11:25.070Z,9.70
2019-03-17T01:13:53.794Z,9.80
2019-03-17T01:16:22.538Z,9.70
2019-03-17T01:18:51.250Z,9.60
2019-03-17T01:21:20.074Z,9.40
2019-03-17T01:23:48.786Z,9.40
2019-03-17T01:26:17.508Z,9.20
2019-03-17T01:28:46.233Z,9.10
2019-03-17T01:31:14.951Z,9.10
2019-03-17T01:33:43.702Z,9.10
2019-03-17T01:36:12.425Z,9.20
2019-03-17T01:38:41.147Z,9.10
2019-03-17T01:41:09.873Z,9.00
2019-03-17T01:43:38.603Z,9.00
2019-03-17T01:46:07.313Z,8.90
2019-03-17T01:48:36.055Z,8.80
2019-03-17T01:51:04.765Z,8.90
2019-03-17T01:53:33.481Z,9.10
2019-03-17T01:56:02.262Z,9.00
2019-03-17T01:58:30.978Z,9.00
2019-03-17T02:00:59.691Z,8.90
2019-03-17T02:03:28.510Z,9.00
2019-03-17T02:05:57.234Z,8.90
2019-03-17T02:08:25.946Z,9.00
2019-03-17T02:10:54.666Z,9.00
2019-03-17T02:13:23.383Z,9.10
2019-03-17T02:15:52.111Z,9.20
2019-03-17T02:18:20.811Z,9.20
2019-03-17T02:20:49.534Z,9.20
2019-03-17T02:23:18.313Z,9.10
2019-03-17T02:25:47.051Z,9.10
2019-03-17T02:28:15.757Z,9.10
2019-03-17T02:30:44.484Z,9.00
2019-03-17T02:33:13.278Z,9.10
2019-03-17T02:35:42.007Z,9.10
2019-03-17T02:38:10.785Z,9.10
2019-03-17T02:40:39.521Z,9.20
2019-03-17T02:43:08.238Z,9.10
2019-03-17T02:45:36.983Z,9.00
2019-03-17T02:48:05.708Z,9.10
2019-03-17T02:50:34.438Z,9.20
2019-03-17T02:53:03.243Z,9.10
2019-03-17T02:55:31.956Z,9.00
2019-03-17T02:58:00.773Z,9.10
2019-03-17T03:00:29.552Z,9.00
2019-03-17T03:02:58.354Z,9.10
2019-03-17T03:05:27.147Z,9.20
2019-03-17T03:07:55.949Z,9.00
2019-03-17T03:10:24.671Z,9.00
2019-03-17T03:12:53.387Z,9.00
2019-03-17T03:15:22.108Z,9.10
2019-03-17T03:17:50.886Z,9.20
2019-03-17T03:20:19.681Z,9.00
2019-03-17T03:22:48.400Z,8.90
2019-03-17T03:25:17.208Z,8.90
2019-03-17T03:27:45.999Z,8.90
2019-03-17T03:30:14.801Z,8.80
2019-03-17T03:32:43.527Z,8.60
2019-03-17T03:35:12.363Z,8.60
2019-03-17T03:37:41.202Z,8.50
2019-03-17T03:40:09.940Z,8.60
2019-03-17T03:42:38.736Z,8.50
2019-03-17T03:45:08.063Z,8.50
2019-03-17T03:47:36.852Z,8.50
2019-03-17T03:50:05.951Z,8.60
2019-03-17T03:52:34.691Z,8.70
2019-03-17T03:55:03.466Z,8.60
2019-03-17T03:57:32.274Z,8.80
2019-03-17T04:00:01.008Z,8.70
2019-03-17T04:02:29.739Z,8.70
2019-03-17T04:04:58.548Z,8.70
2019-03-17T04:07:27.264Z,8.60
2019-03-17T04:09:55.987Z,8.70
2019-03-17T04:12:24.701Z,8.70
2019-03-17T04:14:53.432Z,8.70
2019-03-17T04:17:22.172Z,8.70
2019-03-17T04:19:50.943Z,8.80
2019-03-17T04:22:19.733Z,8.70
2019-03-17T04:24:48.515Z,8.80
2019-03-17T04:27:17.322Z,8.70
2019-03-17T04:29:46.038Z,8.70
2019-03-17T04:32:14.750Z,8.80
2019-03-17T04:34:43.491Z,8.70
2019-03-17T04:37:12.238Z,8.60
2019-03-17T04:39:40.952Z,8.70
2019-03-17T04:42:28.963Z,8.50
2019-03-17T04:44:57.695Z,8.50
2019-03-17T04:47:26.415Z,8.40
2019-03-17T04:49:55.193Z,8.50
2019-03-17T04:52:23.911Z,8.60
2019-03-17T04:54:52.711Z,8.50
2019-03-17T04:57:21.466Z,8.50
2019-03-17T04:59:50.196Z,8.40
2019-03-17T05:02:18.899Z,8.40
2019-03-17T05:04:47.642Z,8.40
2019-03-17T05:07:16.343Z,8.20
2019-03-17T05:09:45.059Z,8.40
2019-03-17T05:12:13.785Z,8.30
2019-03-17T05:14:42.501Z,8.40
2019-03-17T05:17:11.333Z,8.30
2019-03-17T05:19:40.044Z,8.40
2019-03-17T05:22:08.772Z,8.50
2019-03-17T05:24:37.482Z,8.30
2019-03-17T05:27:06.202Z,8.30
2019-03-17T05:29:34.908Z,8.50
2019-03-17T05:32:03.632Z,8.30
2019-03-17T05:34:32.354Z,8.40
2019-03-17T05:37:06.545Z,8.50
2019-03-17T05:39:31.525Z,8.50
2019-03-17T05:42:00.304Z,8.50
2019-03-17T05:44:29.013Z,8.40
2019-03-17T05:46:57.735Z,8.50
2019-03-17T05:49:26.540Z,8.50
2019-03-17T05:51:55.294Z,8.60
2019-03-17T05:54:24.023Z,8.60
2019-03-17T05:56:52.810Z,8.70
2019-03-17T05:59:21.534Z,8.60
2019-03-17T06:01:50.275Z,8.70
2019-03-17T06:04:18.992Z,8.80
2019-03-17T06:06:47.722Z,8.80
2019-03-17T06:09:16.442Z,8.80
2019-03-17T06:11:45.182Z,9.00
2019-03-17T06:14:13.890Z,8.90
2019-03-17T06:16:42.619Z,8.90
2019-03-17T06:19:11.340Z,8.90
2019-03-17T06:21:40.074Z,9.00
2019-03-17T06:24:08.779Z,9.10
2019-03-17T06:26:37.489Z,9.10
2019-03-17T06:29:06.211Z,9.30
2019-03-17T06:31:34.927Z,9.20
2019-03-17T06:34:03.649Z,9.30
2019-03-17T06:36:32.364Z,9.50
2019-03-17T06:39:01.092Z,9.50
2019-03-17T06:41:29.878Z,9.50
2019-03-17T06:43:58.614Z,9.50
2019-03-17T06:46:27.350Z,9.60
2019-03-17T06:48:56.062Z,9.70
2019-03-17T06:51:24.790Z,9.70
2019-03-17T06:53:56.504Z,9.70
2019-03-17T06:56:23.989Z,9.70
2019-03-17T06:58:52.723Z,9.80
2019-03-17T07:01:21.445Z,9.90
2019-03-17T07:03:50.184Z,9.90
2019-03-17T07:06:18.917Z,10.00
2019-03-17T07:08:47.717Z,10.00
2019-03-17T07:11:16.437Z,10.20
2019-03-17T07:13:45.187Z,10.30
2019-03-17T07:16:13.910Z,10.50
2019-03-17T07:18:42.621Z,10.60
2019-03-17T07:21:11.352Z,10.70
2019-03-17T07:23:40.066Z,10.80
2019-03-17T07:26:08.814Z,11.00
2019-03-17T07:28:37.613Z,11.00
2019-03-17T07:31:06.414Z,11.10
2019-03-17T07:33:35.147Z,11.10
2019-03-17T07:36:03.893Z,11.20
2019-03-17T07:38:32.620Z,11.20
2019-03-17T07:41:01.409Z,11.30
2019-03-17T07:43:30.168Z,11.40
2019-03-17T07:45:58.977Z,11.50
2019-03-17T07:48:27.705Z,11.50
2019-03-17T07:50:56.430Z,11.50
2019-03-17T07:53:25.224Z,11.70
2019-03-17T07:55:54.021Z,11.70
2019-03-17T07:58:22.766Z,11.80
2019-03-17T08:00:51.506Z,11.90
2019-03-17T08:03:20.246Z,12.00
2019-03-17T08:05:49.003Z,12.10
2019-03-17T08:08:20.354Z,12.10
2019-03-17T08:10:49.171Z,12.20
2019-03-17T08:13:17.911Z,12.30
2019-03-17T08:15:46.637Z,12.60
2019-03-17T08:18:15.357Z,12.80
2019-03-17T08:20:44.091Z,12.80
2019-03-17T08:23:12.817Z,12.80
2019-03-17T08:25:41.545Z,13.10
2019-03-17T08:28:10.266Z,13.00
2019-03-17T08:30:38.990Z,13.20
2019-03-17T08:33:07.730Z,13.20
2019-03-17T08:35:36.462Z,13.30
2019-03-17T08:38:06.525Z,13.40
2019-03-17T08:40:35.336Z,13.50
2019-03-17T08:43:04.109Z,13.60
2019-03-17T08:45:32.843Z,13.80
2019-03-17T08:48:01.634Z,13.80
2019-03-17T08:50:30.435Z,14.00
2019-03-17T08:52:59.204Z,14.00
2019-03-17T08:55:27.999Z,14.20
2019-03-17T08:57:56.841Z,14.20
2019-03-17T09:00:25.572Z,14.20
2019-03-17T09:02:54.301Z,14.40
2019-03-17T09:05:23.024Z,14.50
2019-03-17T09:07:51.759Z,14.40
2019-03-17T09:10:20.510Z,14.50
2019-03-17T09:12:50.093Z,14.40
2019-03-17T09:15:18.867Z,14.50
2019-03-17T09:17:47.585Z,14.80
2019-03-17T09:20:16.307Z,14.60
2019-03-17T09:22:45.043Z,14.80
2019-03-17T09:25:13.839Z,14.90
2019-03-17T09:27:42.671Z,15.10
2019-03-17T09:30:12.337Z,15.10
2019-03-17T09:32:41.118Z,15.00
2019-03-17T09:35:10.328Z,15.00
2019-03-17T09:37:39.136Z,15.10
2019-03-17T09:40:08.654Z,15.30
2019-03-17T09:42:37.480Z,15.30
2019-03-17T09:45:06.546Z,15.40
2019-03-17T09:47:35.295Z,15.50
2019-03-17T09:50:04.343Z,15.70
2019-03-17T09:52:33.087Z,15.70
2019-03-17T09:55:01.916Z,15.70
2019-03-17T09:57:30.713Z,15.90
2019-03-17T09:59:59.451Z,15.90
2019-03-17T10:02:28.171Z,15.70
2019-03-17T10:04:56.907Z,15.90
2019-03-17T10:07:25.622Z,15.90
2019-03-17T10:09:54.375Z,16.10
2019-03-17T10:12:23.106Z,16.20
2019-03-17T10:14:51.906Z,16.10
2019-03-17T10:17:20.708Z,16.10
2019-03-17T10:19:49.426Z,16.20
2019-03-17T10:22:18.156Z,16.00
2019-03-17T10:24:46.866Z,16.10
2019-03-17T10:27:15.620Z,16.20
2019-03-17T10:29:44.347Z,16.10
2019-03-17T10:32:13.089Z,16.30
2019-03-17T10:34:41.817Z,16.20
2019-03-17T10:37:10.529Z,16.30
2019-03-17T10:39:39.305Z,16.30
2019-03-17T10:42:08.017Z,16.40
2019-03-17T10:44:36.744Z,16.30
2019-03-17T10:47:05.502Z,16.30
2019-03-17T10:49:34.244Z,16.50
2019-03-17T10:52:03.038Z,16.50
2019-03-17T10:54:31.852Z,16.40
2019-03-17T10:57:00.642Z,16.50
2019-03-17T10:59:29.371Z,16.60
2019-03-17T11:01:58.127Z,16.40
2019-03-17T11:04:26.857Z,16.40
2019-03-17T11:06:55.710Z,16.50
2019-03-17T11:09:25.661Z,16.50
2019-03-17T11:11:54.639Z,16.70
2019-03-17T11:14:23.391Z,16.70
2019-03-17T11:16:52.226Z,16.70
2019-03-17T11:19:21.026Z,16.70
2019-03-17T11:21:49.830Z,16.70
2019-03-17T11:24:18.571Z,16.80
2019-03-17T11:26:47.312Z,16.70
2019-03-17T11:29:16.111Z,16.80
2019-03-17T11:31:44.870Z,16.80
2019-03-17T11:34:13.590Z,16.70
2019-03-17T11:36:42.330Z,16.70
2019-03-17T11:39:11.060Z,16.70
2019-03-17T11:41:39.810Z,16.70
2019-03-17T11:44:08.542Z,16.80
2019-03-17T11:46:37.271Z,16.80
2019-03-17T11:49:06.803Z,16.80
2019-03-17T11:51:35.530Z,16.90
2019-03-17T11:54:04.261Z,16.90
2019-03-17T11:56:33.000Z,17.00
2019-03-17T11:59:01.751Z,17.00
2019-03-17T12:01:30.458Z,17.00
2019-03-17T12:03:59.202Z,17.10
2019-03-17T12:06:27.962Z,17.00
2019-03-17T12:08:56.719Z,17.30
2019-03-17T12:11:25.469Z,17.20
2019-03-17T12:13:54.217Z,17.20
2019-03-17T12:16:23.019Z,17.30
2019-03-17T12:18:51.749Z,17.20
2019-03-17T12:21:20.579Z,17.30
2019-03-17T12:23:49.325Z,17.50
2019-03-17T12:26:18.083Z,17.70
2019-03-17T12:28:46.891Z,17.80
2019-03-17T12:31:15.657Z,18.00
2019-03-17T12:33:44.487Z,18.10
2019-03-17T12:36:13.232Z,18.30
2019-03-17T12:38:41.968Z,18.40
2019-03-17T12:41:10.702Z,18.60
2019-03-17T12:43:39.522Z,18.70
2019-03-17T12:46:08.310Z,18.70
2019-03-17T12:48:37.130Z,18.60
2019-03-17T12:51:05.863Z,18.70
2019-03-17T12:53:34.656Z,18.80
2019-03-17T12:56:03.380Z,19.10
2019-03-17T12:58:32.119Z,19.40
2019-03-17T13:01:00.915Z,19.20
2019-03-17T13:03:29.638Z,19.60
2019-03-17T13:05:58.435Z,19.50
2019-03-17T13:08:27.213Z,19.70
2019-03-17T13:10:56.066Z,19.90
2019-03-17T13:13:24.842Z,20.00
2019-03-17T13:15:53.647Z,20.10
2019-03-17T13:18:22.378Z,20.00
2019-03-17T13:20:51.115Z,20.20
2019-03-17T13:23:19.918Z,20.60
2019-03-17T13:25:48.649Z,20.50
2019-03-17T13:28:17.404Z,20.60
2019-03-17T13:30:46.135Z,20.90
2019-03-17T13:33:14.920Z,21.00
2019-03-17T13:35:43.675Z,21.40
2019-03-17T13:38:12.464Z,21.30
2019-03-17T13:40:41.213Z,21.30
2019-03-17T13:43:09.937Z,21.50
2019-03-17T13:45:38.682Z,22.10
2019-03-17T13:48:07.500Z,22.30
2019-03-17T13:50:36.227Z,21.90
2019-03-17T13:53:05.042Z,22.00
2019-03-17T13:55:33.773Z,22.90
2019-03-17T13:58:02.554Z,23.10
2019-03-17T14:00:31.300Z,23.20
2019-03-17T14:03:00.026Z,23.20
2019-03-17T14:05:28.762Z,23.30
2019-03-17T14:07:57.544Z,23.30
2019-03-17T14:10:26.262Z,22.70
2019-03-17T14:12:55.041Z,22.60
2019-03-17T14:15:23.942Z,23.20
2019-03-17T14:17:52.753Z,23.40
2019-03-17T14:20:21.572Z,24.00
2019-03-17T14:22:50.383Z,23.70
2019-03-17T14:25:23.944Z,23.80
2019-03-17T14:27:52.770Z,23.00
2019-03-17T14:30:21.551Z,23.10
2019-03-17T14:32:50.298Z,22.60
2019-03-17T14:35:21.458Z,22.30
2019-03-17T14:37:49.514Z,22.60
2019-03-17T14:40:18.255Z,22.60
2019-03-17T14:42:47.090Z,22.20
2019-03-17T14:45:15.906Z,22.10
2019-03-17T14:47:44.739Z,22.10
2019-03-17T14:50:15.324Z,22.10
2019-03-17T14:52:44.177Z,21.60
2019-03-17T14:55:12.984Z,21.30
2019-03-17T14:57:41.807Z,21.80
2019-03-17T15:00:13.273Z,21.80
2019-03-17T15:02:42.042Z,21.70
2019-03-17T15:05:10.982Z,21.50
2019-03-17T15:07:39.769Z,21.40
2019-03-17T15:10:11.032Z,21.60
2019-03-17T15:12:39.772Z,21.00
2019-03-17T15:15:10.152Z,20.70
2019-03-17T15:17:38.888Z,20.30
2019-03-17T15:20:09.567Z,20.00
2019-03-17T15:22:38.306Z,20.00
2019-03-17T15:25:07.993Z,20.00
2019-03-17T15:27:36.797Z,20.00
2019-03-17T15:30:06.704Z,20.20
2019-03-17T15:32:35.421Z,20.40
2019-03-17T15:35:04.434Z,20.10
2019-03-17T15:37:33.188Z,19.70
2019-03-17T15:40:01.986Z,20.00
2019-03-17T15:42:30.728Z,19.50
2019-03-17T15:44:59.458Z,19.00
2019-03-17T15:47:28.197Z,18.50
2019-03-17T15:49:56.939Z,18.10
2019-03-17T15:52:25.679Z,17.80
2019-03-17T15:54:54.393Z,17.70
2019-03-17T15:57:23.123Z,17.50
2019-03-17T15:59:51.963Z,17.50
2019-03-17T16:02:20.701Z,17.20
2019-03-17T16:04:49.420Z,17.00
2019-03-17T16:07:19.752Z,17.00
2019-03-17T16:09:49.044Z,16.90
2019-03-17T16:12:17.790Z,16.70
2019-03-17T16:14:46.508Z,16.50
2019-03-17T16:17:15.302Z,16.50
2019-03-17T16:19:44.155Z,16.30
2019-03-17T16:22:12.996Z,16.30
2019-03-17T16:24:41.746Z,16.20
2019-03-17T16:27:10.455Z,16.10
2019-03-17T16:29:39.204Z,16.00
2019-03-17T16:32:08.004Z,16.00
2019-03-17T16:34:36.799Z,15.80
2019-03-17T16:37:05.614Z,15.90
2019-03-17T16:39:34.445Z,15.80
2019-03-17T16:42:03.181Z,15.70
2019-03-17T16:44:31.902Z,15.70
2019-03-17T16:47:00.615Z,15.70
2019-03-17T16:49:29.349Z,15.50
2019-03-17T16:51:58.104Z,15.10
2019-03-17T16:54:27.130Z,14.60
2019-03-17T16:56:55.873Z,14.20
2019-03-17T16:59:24.664Z,13.60
2019-03-17T17:01:53.391Z,13.00
2019-03-17T17:04:22.140Z,12.40
2019-03-17T17:06:50.865Z,12.10
2019-03-17T17:09:19.594Z,11.60
2019-03-17T17:11:56.614Z,11.00
2019-03-17T17:14:18.846Z,10.70
2019-03-17T17:16:47.686Z,10.80
2019-03-17T17:19:16.433Z,10.30
2019-03-17T17:21:45.190Z,10.60
2019-03-17T17:24:13.965Z,10.50
2019-03-17T17:26:42.734Z,10.30
2019-03-17T17:29:11.480Z,10.00
2019-03-17T17:31:40.253Z,9.80
2019-03-17T17:34:09.030Z,9.70
2019-03-17T17:36:37.945Z,9.70
2019-03-17T17:39:09.031Z,9.50
2019-03-17T17:41:37.791Z,9.60
2019-03-17T17:44:06.499Z,9.30
2019-03-17T17:46:35.349Z,9.40
2019-03-17T17:49:04.178Z,9.00
2019-03-17T17:51:33.032Z,8.80
2019-03-17T17:54:01.778Z,9.10
2019-03-17T17:56:30.548Z,9.00
2019-03-17T17:58:59.292Z,9.40
2019-03-17T18:01:28.068Z,8.80
2019-03-17T18:03:56.887Z,8.20
2019-03-17T18:06:25.627Z,8.30
2019-03-17T18:08:54.368Z,8.10
2019-03-17T18:11:23.182Z,8.20
2019-03-17T18:13:51.992Z,7.80
2019-03-17T18:16:20.741Z,8.10
2019-03-17T18:18:49.683Z,8.10
2019-03-17T18:21:18.482Z,8.10
2019-03-17T18:23:47.228Z,7.70
2019-03-17T18:26:15.998Z,7.80
2019-03-17T18:28:44.884Z,7.50
2019-03-17T18:31:13.678Z,7.10
2019-03-17T18:33:44.247Z,7.40
2019-03-17T18:36:12.965Z,7.20
2019-03-17T18:38:41.822Z,7.00
2019-03-17T18:41:10.616Z,7.00
2019-03-17T18:43:39.463Z,7.00
2019-03-17T18:46:08.270Z,7.20
2019-03-17T18:48:37.095Z,7.00
2019-03-17T18:51:05.950Z,6.80
2019-03-17T18:53:34.780Z,7.10
2019-03-17T18:56:03.507Z,6.80
2019-03-17T18:58:32.235Z,7.30
2019-03-17T19:01:00.985Z,6.70
2019-03-17T19:03:30.122Z,6.90
2019-03-17T19:05:59.155Z,7.10
2019-03-17T19:08:28.047Z,6.90
2019-03-17T19:10:56.877Z,6.70
2019-03-17T19:13:25.611Z,6.60
2019-03-17T19:15:54.333Z,6.80
2019-03-17T19:18:23.055Z,7.10
2019-03-17T19:20:51.862Z,6.80
2019-03-17T19:23:20.648Z,7.00
2019-03-17T19:25:49.359Z,7.00
2019-03-17T19:28:18.102Z,7.20
2019-03-17T19:30:46.807Z,7.00
2019-03-17T19:33:15.573Z,6.70
2019-03-17T19:35:44.310Z,6.90
2019-03-17T19:38:13.029Z,6.80
2019-03-17T19:40:41.760Z,6.70
2019-03-17T19:43:10.546Z,6.70
2019-03-17T19:45:39.262Z,6.80
2019-03-17T19:48:08.019Z,6.80
2019-03-17T19:50:36.740Z,6.90
2019-03-17T19:53:05.589Z,6.70
2019-03-17T19:55:34.391Z,6.80
2019-03-17T19:58:03.117Z,6.80
2019-03-17T20:00:31.919Z,6.90
2019-03-17T20:03:00.678Z,6.80
2019-03-17T20:05:29.473Z,6.90
2019-03-17T20:07:58.274Z,7.00
2019-03-17T20:10:27.065Z,7.30
2019-03-17T20:12:55.814Z,6.70
2019-03-17T20:15:24.526Z,6.90
2019-03-17T20:17:53.287Z,7.00
2019-03-17T20:20:22.112Z,6.60
2019-03-17T20:22:50.826Z,6.80
2019-03-17T20:25:19.567Z,7.00
2019-03-17T20:27:48.313Z,6.90
2019-03-17T20:30:17.071Z,6.90
2019-03-17T20:32:45.908Z,6.60
2019-03-17T20:35:14.787Z,6.60
2019-03-17T20:37:43.511Z,6.70
2019-03-17T20:40:13.041Z,6.60
2019-03-17T20:42:42.707Z,6.30
2019-03-17T20:45:11.499Z,6.40
2019-03-17T20:47:40.261Z,6.10
2019-03-17T20:50:10.321Z,6.20
2019-03-17T20:52:39.227Z,6.20
2019-03-17T20:55:08.222Z,6.30
2019-03-17T20:57:36.965Z,6.30
2019-03-17T21:00:06.291Z,6.70
2019-03-17T21:02:35.023Z,6.30
2019-03-17T21:05:03.931Z,6.40
2019-03-17T21:07:32.714Z,6.20
2019-03-17T21:10:01.530Z,6.20
2019-03-17T21:12:30.304Z,6.30
2019-03-17T21:14:59.157Z,6.20
2019-03-17T21:17:28.066Z,6.20
2019-03-17T21:19:56.898Z,6.30
2019-03-17T21:22:25.654Z,6.50
2019-03-17T21:24:54.478Z,6.20
2019-03-17T21:27:23.243Z,6.40
2019-03-17T21:29:51.965Z,6.30
2019-03-17T21:32:20.702Z,6.10
2019-03-17T21:34:49.480Z,6.20
2019-03-17T21:37:18.347Z,6.60
2019-03-17T21:39:47.126Z,6.30
2019-03-17T21:42:15.884Z,6.20
2019-03-17T21:44:44.656Z,5.90
2019-03-17T21:47:13.415Z,5.90
2019-03-17T21:49:42.178Z,5.90
2019-03-17T21:52:10.952Z,6.20
2019-03-17T21:54:39.777Z,6.30
2019-03-17T21:57:08.598Z,6.00
2019-03-17T21:59:37.384Z,5.90
2019-03-17T22:02:12.900Z,6.20
2019-03-17T22:04:36.700Z,6.00
2019-03-17T22:07:05.644Z,5.90
2019-03-17T22:09:34.551Z,5.90
2019-03-17T22:12:03.290Z,6.20
2019-03-17T22:14:32.011Z,6.10
2019-03-17T22:17:00.822Z,6.10
2019-03-17T22:19:29.625Z,6.00
2019-03-17T22:21:58.427Z,5.90
2019-03-17T22:24:27.159Z,5.80
2019-03-17T22:26:55.897Z,5.80
2019-03-17T22:29:24.718Z,5.90
2019-03-17T22:31:53.468Z,5.90
2019-03-17T22:34:22.182Z,5.70
2019-03-17T22:36:50.916Z,6.00
2019-03-17T22:39:19.663Z,6.10
2019-03-17T22:41:48.371Z,5.90
2019-03-17T22:44:24.224Z,6.10
2019-03-17T22:46:47.541Z,6.10
2019-03-17T22:49:16.341Z,6.30
2019-03-17T22:51:45.080Z,5.60
2019-03-17T22:54:13.819Z,5.70
2019-03-17T22:56:42.591Z,5.50
2019-03-17T22:59:11.306Z,5.80
2019-03-17T23:01:40.044Z,5.70
2019-03-17T23:04:08.835Z,5.70
2019-03-17T23:06:37.560Z,5.60
2019-03-17T23:09:07.714Z,5.70
2019-03-17T23:11:36.442Z,6.00
2019-03-17T23:14:05.164Z,6.20
2019-03-17T23:16:33.919Z,5.70
2019-03-17T23:19:02.635Z,5.90
2019-03-17T23:21:31.365Z,6.00
2019-03-17T23:24:00.115Z,6.00
2019-03-17T23:26:28.823Z,6.00
2019-03-17T23:28:57.555Z,5.90
2019-03-17T23:31:26.297Z,5.80
2019-03-17T23:33:55.045Z,5.80
2019-03-17T23:36:23.818Z,5.90
2019-03-17T23:38:52.592Z,5.80
2019-03-17T23:41:21.321Z,5.90
2019-03-17T23:43:50.107Z,5.70
2019-03-17T23:46:18.853Z,5.80
2019-03-17T23:48:47.638Z,5.90
2019-03-17T23:51:16.471Z,5.90
2019-03-17T23:53:45.202Z,5.80
2019-03-17T23:56:13.927Z,5.80
2019-03-17T23:58:42.657Z,5.80
